sensor_id;sensor_type;location;lat;lon;timestamp;P1;durP1;ratioP1;P2;durP2;ratioP2
26824;SDS011;14402;48.178;11.566;2022-11-14T00:00:15;21.2;;;9.6;;
26824;SDS011;14402;48.178;11.566;2022-11-14T00:00:44;26.2;;;9.6;;
26824;SDS011;14402;48.178;11.566;2022-11-14T00:01:15;26.2;;;9.6;;
26824;SDS011;14402;48.178;11.566;2022-11-14T00:01:45;26.2;;;9.6;;
26824;SDS011;14402;48.178;11.566;2022-11-14T00:02:15;22.1;;;9.6;;
26824;SDS011;14402;48.178;11.566;2022-11-14T00:02:45;18.0;;;9.6;;
26824;SDS011;14402;48.178;11.566;2022-11-14T00:03:15;18.0;;;9.6;;
26824;SDS011;14402;48.178;11.566;2022-11-14T00:03:47;18.0;;;9.6;;
26824;SDS011;14402;48.178;11.566;2022-11-14T00:04:15;18.4;;;9.7;;
26824;SDS011;14402;48.178;11.566;2022-11-14T00:04:45;18.8;;;9.8;;
26824;SDS011;14402;48.178;11.566;2022-11-14T00:05:15;18.8;;;9.8;;
26824;SDS011;14402;48.178;11.566;2022-11-14T00:05:45;18.8;;;9.8;;
26824;SDS011;14402;48.178;11.566;2022-11-14T00:06:15;14.8;;;9.8;;
26824;SDS011;14402;48.178;11.566;2022-11-14T00:06:46;10.8;;;9.7;;
26824;SDS011;14402;48.178;11.566;2022-11-14T00:07:16;10.8;;;9.7;;
26824;SDS011;14402;48.178;11.566;2022-11-14T00:07:46;10.8;;;9.7;;
26824;SDS011;14402;48.178;11.566;2022-11-14T00:08:17;10.3;;;9.3;;
26824;SDS011;14402;48.178;11.566;2022-11-14T00:08:46;9.8;;;8.9;;
26824;SDS011;14402;48.178;11.566;2022-11-14T00:09:16;9.8;;;8.9;;
26824;SDS011;14402;48.178;11.566;2022-11-14T00:09:46;9.8;;;8.9;;
26824;SDS011;14402;48.178;11.566;2022-11-14T00:10:16;9.4;;;8.5;;
26824;SDS011;14402;48.178;11.566;2022-11-14T00:10:46;9.0;;;8.2;;
26824;SDS011;14402;48.178;11.566;2022-11-14T00:11:16;9.0;;;8.2;;
26824;SDS011;14402;48.178;11.566;2022-11-14T00:11:46;9.0;;;8.2;;
26824;SDS011;14402;48.178;11.566;2022-11-14T00:12:16;10.1;;;8.2;;
26824;SDS011;14402;48.178;11.566;2022-11-14T00:12:47;11.1;;;8.2;;
26824;SDS011;14402;48.178;11.566;2022-11-14T00:13:17;11.1;;;8.2;;
26824;SDS011;14402;48.178;11.566;2022-11-14T00:13:47;11.1;;;8.2;;
26824;SDS011;14402;48.178;11.566;2022-11-14T00:14:17;10.1;;;8.1;;
26824;SDS011;14402;48.178;11.566;2022-11-14T00:14:47;9.1;;;8.0;;
26824;SDS011;14402;48.178;11.566;2022-11-14T00:15:17;9.1;;;8.0;;
26824;SDS011;14402;48.178;11.566;2022-11-14T00:15:48;9.1;;;8.0;;
26824;SDS011;14402;48.178;11.566;2022-11-14T00:16:17;9.4;;;8.4;;
26824;SDS011;14402;48.178;11.566;2022-11-14T00:16:47;9.7;;;8.7;;
26824;SDS011;14402;48.178;11.566;2022-11-14T00:17:19;9.7;;;8.7;;
26824;SDS011;14402;48.178;11.566;2022-11-14T00:17:48;9.7;;;8.7;;
26824;SDS011;14402;48.178;11.566;2022-11-14T00:18:18;9.5;;;8.6;;
26824;SDS011;14402;48.178;11.566;2022-11-14T00:18:48;9.4;;;8.5;;
26824;SDS011;14402;48.178;11.566;2022-11-14T00:19:18;9.4;;;8.5;;
26824;SDS011;14402;48.178;11.566;2022-11-14T00:19:48;9.4;;;8.5;;
26824;SDS011;14402;48.178;11.566;2022-11-14T00:20:18;9.4;;;8.5;;
26824;SDS011;14402;48.178;11.566;2022-11-14T00:20:48;9.4;;;8.5;;
26824;SDS011;14402;48.178;11.566;2022-11-14T00:21:18;9.4;;;8.5;;
26824;SDS011;14402;48.178;11.566;2022-11-14T00:21:48;9.4;;;8.5;;
26824;SDS011;14402;48.178;11.566;2022-11-14T00:22:18;10.4;;;8.7;;
26824;SDS011;14402;48.178;11.566;2022-11-14T00:22:48;11.4;;;8.9;;
26824;SDS011;14402;48.178;11.566;2022-11-14T00:23:19;11.4;;;8.9;;
26824;SDS011;14402;48.178;11.566;2022-11-14T00:23:49;11.4;;;8.9;;
26824;SDS011;14402;48.178;11.566;2022-11-14T00:24:19;11.1;;;9.0;;
26824;SDS011;14402;48.178;11.566;2022-11-14T00:24:49;10.8;;;9.1;;
26824;SDS011;14402;48.178;11.566;2022-11-14T00:25:19;10.8;;;9.1;;
26824;SDS011;14402;48.178;11.566;2022-11-14T00:25:49;10.8;;;9.1;;
26824;SDS011;14402;48.178;11.566;2022-11-14T00:26:19;10.2;;;8.9;;
26824;SDS011;14402;48.178;11.566;2022-11-14T00:26:49;9.6;;;8.7;;
26824;SDS011;14402;48.178;11.566;2022-11-14T00:27:19;9.6;;;8.7;;
26824;SDS011;14402;48.178;11.566;2022-11-14T00:27:49;9.6;;;8.7;;
26824;SDS011;14402;48.178;11.566;2022-11-14T00:28:19;10.6;;;9.0;;
26824;SDS011;14402;48.178;11.566;2022-11-14T00:28:49;11.7;;;9.4;;
26824;SDS011;14402;48.178;11.566;2022-11-14T00:29:20;11.7;;;9.4;;
26824;SDS011;14402;48.178;11.566;2022-11-14T00:29:50;11.7;;;9.4;;
26824;SDS011;14402;48.178;11.566;2022-11-14T00:30:20;10.5;;;8.9;;
26824;SDS011;14402;48.178;11.566;2022-11-14T00:30:50;9.4;;;8.4;;
26824;SDS011;14402;48.178;11.566;2022-11-14T00:31:20;9.4;;;8.4;;
26824;SDS011;14402;48.178;11.566;2022-11-14T00:31:50;9.4;;;8.4;;
26824;SDS011;14402;48.178;11.566;2022-11-14T00:32:20;10.9;;;8.4;;
26824;SDS011;14402;48.178;11.566;2022-11-14T00:32:50;12.3;;;8.5;;
26824;SDS011;14402;48.178;11.566;2022-11-14T00:33:20;12.3;;;8.5;;
26824;SDS011;14402;48.178;11.566;2022-11-14T00:33:50;12.3;;;8.5;;
26824;SDS011;14402;48.178;11.566;2022-11-14T00:34:20;10.5;;;8.2;;
26824;SDS011;14402;48.178;11.566;2022-11-14T00:34:50;8.7;;;7.9;;
26824;SDS011;14402;48.178;11.566;2022-11-14T00:35:21;8.7;;;7.9;;
26824;SDS011;14402;48.178;11.566;2022-11-14T00:35:51;8.7;;;7.9;;
26824;SDS011;14402;48.178;11.566;2022-11-14T00:36:21;13.0;;;8.4;;
26824;SDS011;14402;48.178;11.566;2022-11-14T00:36:51;17.4;;;8.8;;
26824;SDS011;14402;48.178;11.566;2022-11-14T00:37:21;17.4;;;8.8;;
26824;SDS011;14402;48.178;11.566;2022-11-14T00:37:51;17.4;;;8.8;;
26824;SDS011;14402;48.178;11.566;2022-11-14T00:38:21;13.2;;;8.5;;
26824;SDS011;14402;48.178;11.566;2022-11-14T00:38:52;9.0;;;8.1;;
26824;SDS011;14402;48.178;11.566;2022-11-14T00:39:21;9.0;;;8.1;;
26824;SDS011;14402;48.178;11.566;2022-11-14T00:39:51;9.0;;;8.1;;
26824;SDS011;14402;48.178;11.566;2022-11-14T00:40:21;8.8;;;7.9;;
26824;SDS011;14402;48.178;11.566;2022-11-14T00:40:52;8.6;;;7.7;;
26824;SDS011;14402;48.178;11.566;2022-11-14T00:41:22;8.6;;;7.7;;
26824;SDS011;14402;48.178;11.566;2022-11-14T00:41:52;8.6;;;7.7;;
26824;SDS011;14402;48.178;11.566;2022-11-14T00:42:22;10.2;;;7.9;;
26824;SDS011;14402;48.178;11.566;2022-11-14T00:42:52;11.9;;;8.2;;
26824;SDS011;14402;48.178;11.566;2022-11-14T00:43:22;11.9;;;8.2;;
26824;SDS011;14402;48.178;11.566;2022-11-14T00:43:52;11.9;;;8.2;;
26824;SDS011;14402;48.178;11.566;2022-11-14T00:44:22;25.8;;;8.2;;
26824;SDS011;14402;48.178;11.566;2022-11-14T00:44:52;39.6;;;8.3;;
26824;SDS011;14402;48.178;11.566;2022-11-14T00:45:22;39.6;;;8.3;;
26824;SDS011;14402;48.178;11.566;2022-11-14T00:45:53;39.6;;;8.3;;
26824;SDS011;14402;48.178;11.566;2022-11-14T00:46:23;23.9;;;7.9;;
26824;SDS011;14402;48.178;11.566;2022-11-14T00:46:53;8.3;;;7.5;;
26824;SDS011;14402;48.178;11.566;2022-11-14T00:47:23;8.3;;;7.5;;
26824;SDS011;14402;48.178;11.566;2022-11-14T00:47:53;8.3;;;7.5;;
26824;SDS011;14402;48.178;11.566;2022-11-14T00:48:23;8.4;;;7.6;;
26824;SDS011;14402;48.178;11.566;2022-11-14T00:48:53;8.4;;;7.6;;
26824;SDS011;14402;48.178;11.566;2022-11-14T00:49:23;8.4;;;7.6;;
26824;SDS011;14402;48.178;11.566;2022-11-14T00:49:53;8.4;;;7.6;;
26824;SDS011;14402;48.178;11.566;2022-11-14T00:50:23;8.5;;;7.6;;
26824;SDS011;14402;48.178;11.566;2022-11-14T00:50:53;8.6;;;7.6;;
26824;SDS011;14402;48.178;11.566;2022-11-14T00:51:23;8.6;;;7.6;;
26824;SDS011;14402;48.178;11.566;2022-11-14T00:51:54;8.6;;;7.6;;
26824;SDS011;14402;48.178;11.566;2022-11-14T00:52:24;8.7;;;7.8;;
26824;SDS011;14402;48.178;11.566;2022-11-14T00:52:54;8.8;;;8.0;;
26824;SDS011;14402;48.178;11.566;2022-11-14T00:53:24;8.8;;;8.0;;
26824;SDS011;14402;48.178;11.566;2022-11-14T00:53:54;8.8;;;8.0;;
26824;SDS011;14402;48.178;11.566;2022-11-14T00:54:24;8.6;;;7.8;;
26824;SDS011;14402;48.178;11.566;2022-11-14T00:54:54;8.5;;;7.7;;
26824;SDS011;14402;48.178;11.566;2022-11-14T00:55:24;8.5;;;7.7;;
26824;SDS011;14402;48.178;11.566;2022-11-14T00:55:54;8.5;;;7.7;;
26824;SDS011;14402;48.178;11.566;2022-11-14T00:56:24;8.6;;;7.7;;
26824;SDS011;14402;48.178;11.566;2022-11-14T00:56:54;8.6;;;7.7;;
26824;SDS011;14402;48.178;11.566;2022-11-14T00:57:25;8.6;;;7.7;;
26824;SDS011;14402;48.178;11.566;2022-11-14T00:57:55;8.6;;;7.7;;
26824;SDS011;14402;48.178;11.566;2022-11-14T00:58:25;8.5;;;7.6;;
26824;SDS011;14402;48.178;11.566;2022-11-14T00:58:55;8.3;;;7.6;;
26824;SDS011;14402;48.178;11.566;2022-11-14T00:59:25;8.3;;;7.6;;
26824;SDS011;14402;48.178;11.566;2022-11-14T00:59:55;8.3;;;7.6;;
26824;SDS011;14402;48.178;11.566;2022-11-14T01:00:25;8.7;;;7.9;;
26824;SDS011;14402;48.178;11.566;2022-11-14T01:00:55;9.1;;;8.2;;
26824;SDS011;14402;48.178;11.566;2022-11-14T01:01:25;9.1;;;8.2;;
26824;SDS011;14402;48.178;11.566;2022-11-14T01:01:55;9.1;;;8.2;;
26824;SDS011;14402;48.178;11.566;2022-11-14T01:02:25;9.1;;;8.0;;
26824;SDS011;14402;48.178;11.566;2022-11-14T01:02:55;9.0;;;7.8;;
26824;SDS011;14402;48.178;11.566;2022-11-14T01:03:26;9.0;;;7.8;;
26824;SDS011;14402;48.178;11.566;2022-11-14T01:03:56;9.0;;;7.8;;
26824;SDS011;14402;48.178;11.566;2022-11-14T01:04:26;9.2;;;8.2;;
26824;SDS011;14402;48.178;11.566;2022-11-14T01:04:56;9.4;;;8.6;;
26824;SDS011;14402;48.178;11.566;2022-11-14T01:05:26;9.4;;;8.6;;
26824;SDS011;14402;48.178;11.566;2022-11-14T01:05:56;9.4;;;8.6;;
26824;SDS011;14402;48.178;11.566;2022-11-14T01:06:26;9.4;;;8.5;;
26824;SDS011;14402;48.178;11.566;2022-11-14T01:06:56;9.3;;;8.4;;
26824;SDS011;14402;48.178;11.566;2022-11-14T01:07:26;9.3;;;8.4;;
26824;SDS011;14402;48.178;11.566;2022-11-14T01:07:56;9.3;;;8.4;;
26824;SDS011;14402;48.178;11.566;2022-11-14T01:08:26;9.4;;;8.5;;
26824;SDS011;14402;48.178;11.566;2022-11-14T01:08:57;9.5;;;8.6;;
26824;SDS011;14402;48.178;11.566;2022-11-14T01:09:27;9.5;;;8.6;;
26824;SDS011;14402;48.178;11.566;2022-11-14T01:09:57;9.5;;;8.6;;
26824;SDS011;14402;48.178;11.566;2022-11-14T01:10:27;9.2;;;8.4;;
26824;SDS011;14402;48.178;11.566;2022-11-14T01:10:57;9.0;;;8.2;;
26824;SDS011;14402;48.178;11.566;2022-11-14T01:11:27;9.0;;;8.2;;
26824;SDS011;14402;48.178;11.566;2022-11-14T01:11:57;9.0;;;8.2;;
26824;SDS011;14402;48.178;11.566;2022-11-14T01:12:27;9.4;;;8.4;;
26824;SDS011;14402;48.178;11.566;2022-11-14T01:12:57;9.7;;;8.7;;
26824;SDS011;14402;48.178;11.566;2022-11-14T01:13:30;9.7;;;8.7;;
26824;SDS011;14402;48.178;11.566;2022-11-14T01:13:58;9.7;;;8.7;;
26824;SDS011;14402;48.178;11.566;2022-11-14T01:14:28;9.4;;;8.4;;
26824;SDS011;14402;48.178;11.566;2022-11-14T01:14:58;9.0;;;8.1;;
26824;SDS011;14402;48.178;11.566;2022-11-14T01:15:28;9.0;;;8.1;;
26824;SDS011;14402;48.178;11.566;2022-11-14T01:15:59;9.0;;;8.1;;
26824;SDS011;14402;48.178;11.566;2022-11-14T01:16:28;10.2;;;8.4;;
26824;SDS011;14402;48.178;11.566;2022-11-14T01:16:58;11.5;;;8.6;;
26824;SDS011;14402;48.178;11.566;2022-11-14T01:17:29;11.5;;;8.6;;
26824;SDS011;14402;48.178;11.566;2022-11-14T01:17:58;11.5;;;8.6;;
26824;SDS011;14402;48.178;11.566;2022-11-14T01:18:28;13.6;;;8.6;;
26824;SDS011;14402;48.178;11.566;2022-11-14T01:18:58;15.6;;;8.7;;
26824;SDS011;14402;48.178;11.566;2022-11-14T01:19:29;15.6;;;8.7;;
26824;SDS011;14402;48.178;11.566;2022-11-14T01:19:59;15.6;;;8.7;;
26824;SDS011;14402;48.178;11.566;2022-11-14T01:20:29;13.8;;;8.8;;
26824;SDS011;14402;48.178;11.566;2022-11-14T01:20:59;12.0;;;8.8;;
26824;SDS011;14402;48.178;11.566;2022-11-14T01:21:29;12.0;;;8.8;;
26824;SDS011;14402;48.178;11.566;2022-11-14T01:21:59;12.0;;;8.8;;
26824;SDS011;14402;48.178;11.566;2022-11-14T01:22:29;13.6;;;8.8;;
26824;SDS011;14402;48.178;11.566;2022-11-14T01:22:59;15.2;;;8.8;;
26824;SDS011;14402;48.178;11.566;2022-11-14T01:23:29;15.2;;;8.8;;
26824;SDS011;14402;48.178;11.566;2022-11-14T01:23:59;15.2;;;8.8;;
26824;SDS011;14402;48.178;11.566;2022-11-14T01:24:30;15.4;;;8.6;;
26824;SDS011;14402;48.178;11.566;2022-11-14T01:24:59;15.7;;;8.5;;
26824;SDS011;14402;48.178;11.566;2022-11-14T01:25:31;15.7;;;8.5;;
26824;SDS011;14402;48.178;11.566;2022-11-14T01:26:00;15.7;;;8.5;;
26824;SDS011;14402;48.178;11.566;2022-11-14T01:26:30;13.5;;;8.6;;
26824;SDS011;14402;48.178;11.566;2022-11-14T01:27:00;11.4;;;8.6;;
26824;SDS011;14402;48.178;11.566;2022-11-14T01:27:30;11.4;;;8.6;;
26824;SDS011;14402;48.178;11.566;2022-11-14T01:28:00;11.4;;;8.6;;
26824;SDS011;14402;48.178;11.566;2022-11-14T01:28:30;11.5;;;8.6;;
26824;SDS011;14402;48.178;11.566;2022-11-14T01:29:00;11.7;;;8.5;;
26824;SDS011;14402;48.178;11.566;2022-11-14T01:29:30;11.7;;;8.5;;
26824;SDS011;14402;48.178;11.566;2022-11-14T01:30:00;11.7;;;8.5;;
26824;SDS011;14402;48.178;11.566;2022-11-14T01:30:30;11.5;;;8.2;;
26824;SDS011;14402;48.178;11.566;2022-11-14T01:31:08;11.4;;;7.9;;
26824;SDS011;14402;48.178;11.566;2022-11-14T01:31:30;11.4;;;7.9;;
26824;SDS011;14402;48.178;11.566;2022-11-14T01:32:01;11.4;;;7.9;;
26824;SDS011;14402;48.178;11.566;2022-11-14T01:32:31;10.0;;;7.8;;
26824;SDS011;14402;48.178;11.566;2022-11-14T01:33:01;8.6;;;7.7;;
26824;SDS011;14402;48.178;11.566;2022-11-14T01:33:31;8.6;;;7.7;;
26824;SDS011;14402;48.178;11.566;2022-11-14T01:34:01;8.6;;;7.7;;
26824;SDS011;14402;48.178;11.566;2022-11-14T01:34:31;9.4;;;7.8;;
26824;SDS011;14402;48.178;11.566;2022-11-14T01:35:01;10.1;;;8.0;;
26824;SDS011;14402;48.178;11.566;2022-11-14T01:35:31;10.1;;;8.0;;
26824;SDS011;14402;48.178;11.566;2022-11-14T01:36:01;10.1;;;8.0;;
26824;SDS011;14402;48.178;11.566;2022-11-14T01:36:31;9.1;;;7.6;;
26824;SDS011;14402;48.178;11.566;2022-11-14T01:37:01;8.0;;;7.2;;
26824;SDS011;14402;48.178;11.566;2022-11-14T01:37:32;8.0;;;7.2;;
26824;SDS011;14402;48.178;11.566;2022-11-14T01:38:02;8.0;;;7.2;;
26824;SDS011;14402;48.178;11.566;2022-11-14T01:38:32;8.1;;;7.1;;
26824;SDS011;14402;48.178;11.566;2022-11-14T01:39:02;8.2;;;7.1;;
26824;SDS011;14402;48.178;11.566;2022-11-14T01:39:32;8.2;;;7.1;;
26824;SDS011;14402;48.178;11.566;2022-11-14T01:40:02;8.2;;;7.1;;
26824;SDS011;14402;48.178;11.566;2022-11-14T01:40:32;8.9;;;7.6;;
26824;SDS011;14402;48.178;11.566;2022-11-14T01:41:02;9.5;;;8.2;;
26824;SDS011;14402;48.178;11.566;2022-11-14T01:41:32;9.5;;;8.2;;
26824;SDS011;14402;48.178;11.566;2022-11-14T01:42:02;9.5;;;8.2;;
26824;SDS011;14402;48.178;11.566;2022-11-14T01:42:32;9.1;;;8.1;;
26824;SDS011;14402;48.178;11.566;2022-11-14T01:43:10;8.8;;;7.9;;
26824;SDS011;14402;48.178;11.566;2022-11-14T01:43:33;8.8;;;7.9;;
26824;SDS011;14402;48.178;11.566;2022-11-14T01:44:03;8.8;;;7.9;;
26824;SDS011;14402;48.178;11.566;2022-11-14T01:44:43;9.9;;;7.9;;
26824;SDS011;14402;48.178;11.566;2022-11-14T01:45:40;10.9;;;8.0;;
26824;SDS011;14402;48.178;11.566;2022-11-14T01:45:46;10.9;;;8.0;;
26824;SDS011;14402;48.178;11.566;2022-11-14T01:46:04;10.9;;;8.0;;
26824;SDS011;14402;48.178;11.566;2022-11-14T01:46:33;9.7;;;7.8;;
26824;SDS011;14402;48.178;11.566;2022-11-14T01:47:03;8.5;;;7.7;;
26824;SDS011;14402;48.178;11.566;2022-11-14T01:47:33;8.5;;;7.7;;
26824;SDS011;14402;48.178;11.566;2022-11-14T01:48:03;8.5;;;7.7;;
26824;SDS011;14402;48.178;11.566;2022-11-14T01:48:35;8.5;;;7.8;;
26824;SDS011;14402;48.178;11.566;2022-11-14T01:49:04;8.5;;;7.8;;
26824;SDS011;14402;48.178;11.566;2022-11-14T01:49:35;8.5;;;7.8;;
26824;SDS011;14402;48.178;11.566;2022-11-14T01:50:04;8.5;;;7.8;;
26824;SDS011;14402;48.178;11.566;2022-11-14T01:50:34;8.7;;;8.0;;
26824;SDS011;14402;48.178;11.566;2022-11-14T01:51:07;8.9;;;8.1;;
26824;SDS011;14402;48.178;11.566;2022-11-14T01:51:34;8.9;;;8.1;;
26824;SDS011;14402;48.178;11.566;2022-11-14T01:52:05;8.9;;;8.1;;
26824;SDS011;14402;48.178;11.566;2022-11-14T01:52:35;9.0;;;8.1;;
26824;SDS011;14402;48.178;11.566;2022-11-14T01:53:04;9.1;;;8.2;;
26824;SDS011;14402;48.178;11.566;2022-11-14T01:53:34;9.1;;;8.2;;
26824;SDS011;14402;48.178;11.566;2022-11-14T01:54:05;9.1;;;8.2;;
26824;SDS011;14402;48.178;11.566;2022-11-14T01:54:36;10.4;;;8.5;;
26824;SDS011;14402;48.178;11.566;2022-11-14T01:55:05;11.7;;;8.8;;
26824;SDS011;14402;48.178;11.566;2022-11-14T01:55:34;11.7;;;8.8;;
26824;SDS011;14402;48.178;11.566;2022-11-14T01:56:05;11.7;;;8.8;;
26824;SDS011;14402;48.178;11.566;2022-11-14T01:56:35;13.4;;;8.6;;
26824;SDS011;14402;48.178;11.566;2022-11-14T01:57:05;15.1;;;8.5;;
26824;SDS011;14402;48.178;11.566;2022-11-14T01:57:36;15.1;;;8.5;;
26824;SDS011;14402;48.178;11.566;2022-11-14T01:58:05;15.1;;;8.5;;
26824;SDS011;14402;48.178;11.566;2022-11-14T01:58:36;12.5;;;8.4;;
26824;SDS011;14402;48.178;11.566;2022-11-14T01:59:05;9.8;;;8.3;;
26824;SDS011;14402;48.178;11.566;2022-11-14T01:59:37;9.8;;;8.3;;
26824;SDS011;14402;48.178;11.566;2022-11-14T02:00:06;9.8;;;8.3;;
26824;SDS011;14402;48.178;11.566;2022-11-14T02:00:35;9.6;;;8.3;;
26824;SDS011;14402;48.178;11.566;2022-11-14T02:01:05;9.3;;;8.3;;
26824;SDS011;14402;48.178;11.566;2022-11-14T02:01:36;9.3;;;8.3;;
26824;SDS011;14402;48.178;11.566;2022-11-14T02:02:07;9.3;;;8.3;;
26824;SDS011;14402;48.178;11.566;2022-11-14T02:02:36;10.2;;;8.4;;
26824;SDS011;14402;48.178;11.566;2022-11-14T02:03:06;11.2;;;8.4;;
26824;SDS011;14402;48.178;11.566;2022-11-14T02:03:37;11.2;;;8.4;;
26824;SDS011;14402;48.178;11.566;2022-11-14T02:04:06;11.2;;;8.4;;
26824;SDS011;14402;48.178;11.566;2022-11-14T02:04:37;11.4;;;8.3;;
26824;SDS011;14402;48.178;11.566;2022-11-14T02:05:07;11.5;;;8.2;;
26824;SDS011;14402;48.178;11.566;2022-11-14T02:05:36;11.5;;;8.2;;
26824;SDS011;14402;48.178;11.566;2022-11-14T02:06:07;11.5;;;8.2;;
26824;SDS011;14402;48.178;11.566;2022-11-14T02:06:37;10.4;;;8.0;;
26824;SDS011;14402;48.178;11.566;2022-11-14T02:07:06;9.2;;;7.8;;
26824;SDS011;14402;48.178;11.566;2022-11-14T02:07:38;9.2;;;7.8;;
26824;SDS011;14402;48.178;11.566;2022-11-14T02:08:07;9.2;;;7.8;;
26824;SDS011;14402;48.178;11.566;2022-11-14T02:08:37;12.3;;;7.8;;
26824;SDS011;14402;48.178;11.566;2022-11-14T02:09:07;15.4;;;7.8;;
26824;SDS011;14402;48.178;11.566;2022-11-14T02:09:38;15.4;;;7.8;;
26824;SDS011;14402;48.178;11.566;2022-11-14T02:10:08;15.4;;;7.8;;
26824;SDS011;14402;48.178;11.566;2022-11-14T02:10:37;14.9;;;7.7;;
26824;SDS011;14402;48.178;11.566;2022-11-14T02:11:08;14.5;;;7.6;;
26824;SDS011;14402;48.178;11.566;2022-11-14T02:11:38;14.5;;;7.6;;
26824;SDS011;14402;48.178;11.566;2022-11-14T02:12:08;14.5;;;7.6;;
26824;SDS011;14402;48.178;11.566;2022-11-14T02:12:37;12.4;;;7.6;;
26824;SDS011;14402;48.178;11.566;2022-11-14T02:13:07;10.2;;;7.7;;
26824;SDS011;14402;48.178;11.566;2022-11-14T02:13:38;10.2;;;7.7;;
26824;SDS011;14402;48.178;11.566;2022-11-14T02:14:08;10.2;;;7.7;;
26824;SDS011;14402;48.178;11.566;2022-11-14T02:14:38;12.3;;;7.5;;
26824;SDS011;14402;48.178;11.566;2022-11-14T02:15:08;14.4;;;7.3;;
26824;SDS011;14402;48.178;11.566;2022-11-14T02:15:38;14.4;;;7.3;;
26824;SDS011;14402;48.178;11.566;2022-11-14T02:16:08;14.4;;;7.3;;
26824;SDS011;14402;48.178;11.566;2022-11-14T02:16:38;18.7;;;7.1;;
26824;SDS011;14402;48.178;11.566;2022-11-14T02:17:09;23.0;;;6.8;;
26824;SDS011;14402;48.178;11.566;2022-11-14T02:17:39;23.0;;;6.8;;
26824;SDS011;14402;48.178;11.566;2022-11-14T02:18:08;23.0;;;6.8;;
26824;SDS011;14402;48.178;11.566;2022-11-14T02:18:38;16.5;;;6.7;;
26824;SDS011;14402;48.178;11.566;2022-11-14T02:19:09;10.0;;;6.6;;
26824;SDS011;14402;48.178;11.566;2022-11-14T02:19:39;10.0;;;6.6;;
26824;SDS011;14402;48.178;11.566;2022-11-14T02:20:14;10.0;;;6.6;;
26824;SDS011;14402;48.178;11.566;2022-11-14T02:20:39;9.7;;;6.4;;
26824;SDS011;14402;48.178;11.566;2022-11-14T02:21:09;9.4;;;6.3;;
26824;SDS011;14402;48.178;11.566;2022-11-14T02:21:39;9.4;;;6.3;;
26824;SDS011;14402;48.178;11.566;2022-11-14T02:22:09;9.4;;;6.3;;
26824;SDS011;14402;48.178;11.566;2022-11-14T02:22:40;8.0;;;6.2;;
26824;SDS011;14402;48.178;11.566;2022-11-14T02:23:10;6.6;;;6.0;;
26824;SDS011;14402;48.178;11.566;2022-11-14T02:23:39;6.6;;;6.0;;
26824;SDS011;14402;48.178;11.566;2022-11-14T02:24:10;6.6;;;6.0;;
26824;SDS011;14402;48.178;11.566;2022-11-14T02:24:40;8.3;;;6.0;;
26824;SDS011;14402;48.178;11.566;2022-11-14T02:25:10;10.0;;;6.0;;
26824;SDS011;14402;48.178;11.566;2022-11-14T02:25:40;10.0;;;6.0;;
26824;SDS011;14402;48.178;11.566;2022-11-14T02:26:10;10.0;;;6.0;;
26824;SDS011;14402;48.178;11.566;2022-11-14T02:26:40;15.9;;;6.0;;
26824;SDS011;14402;48.178;11.566;2022-11-14T02:27:10;21.9;;;6.0;;
26824;SDS011;14402;48.178;11.566;2022-11-14T02:27:40;21.9;;;6.0;;
26824;SDS011;14402;48.178;11.566;2022-11-14T02:28:10;21.9;;;6.0;;
26824;SDS011;14402;48.178;11.566;2022-11-14T02:28:40;21.5;;;5.8;;
26824;SDS011;14402;48.178;11.566;2022-11-14T02:29:10;21.2;;;5.7;;
26824;SDS011;14402;48.178;11.566;2022-11-14T02:29:40;21.2;;;5.7;;
26824;SDS011;14402;48.178;11.566;2022-11-14T02:30:11;21.2;;;5.7;;
26824;SDS011;14402;48.178;11.566;2022-11-14T02:30:40;18.8;;;5.8;;
26824;SDS011;14402;48.178;11.566;2022-11-14T02:31:11;16.3;;;5.8;;
26824;SDS011;14402;48.178;11.566;2022-11-14T02:31:41;16.3;;;5.8;;
26824;SDS011;14402;48.178;11.566;2022-11-14T02:32:11;16.3;;;5.8;;
26824;SDS011;14402;48.178;11.566;2022-11-14T02:32:41;14.9;;;5.9;;
26824;SDS011;14402;48.178;11.566;2022-11-14T02:33:11;13.6;;;5.9;;
26824;SDS011;14402;48.178;11.566;2022-11-14T02:33:41;13.6;;;5.9;;
26824;SDS011;14402;48.178;11.566;2022-11-14T02:34:11;13.6;;;5.9;;
26824;SDS011;14402;48.178;11.566;2022-11-14T02:34:41;9.9;;;5.8;;
26824;SDS011;14402;48.178;11.566;2022-11-14T02:35:11;6.2;;;5.6;;
26824;SDS011;14402;48.178;11.566;2022-11-14T02:35:41;6.2;;;5.6;;
26824;SDS011;14402;48.178;11.566;2022-11-14T02:36:12;6.2;;;5.6;;
26824;SDS011;14402;48.178;11.566;2022-11-14T02:36:41;8.5;;;5.8;;
26824;SDS011;14402;48.178;11.566;2022-11-14T02:37:12;10.8;;;6.0;;
26824;SDS011;14402;48.178;11.566;2022-11-14T02:37:42;10.8;;;6.0;;
26824;SDS011;14402;48.178;11.566;2022-11-14T02:38:12;10.8;;;6.0;;
26824;SDS011;14402;48.178;11.566;2022-11-14T02:38:42;9.4;;;6.0;;
26824;SDS011;14402;48.178;11.566;2022-11-14T02:39:12;7.9;;;6.0;;
26824;SDS011;14402;48.178;11.566;2022-11-14T02:39:42;7.9;;;6.0;;
26824;SDS011;14402;48.178;11.566;2022-11-14T02:40:12;7.9;;;6.0;;
26824;SDS011;14402;48.178;11.566;2022-11-14T02:40:42;7.2;;;5.9;;
26824;SDS011;14402;48.178;11.566;2022-11-14T02:41:12;6.4;;;5.8;;
26824;SDS011;14402;48.178;11.566;2022-11-14T02:41:42;6.4;;;5.8;;
26824;SDS011;14402;48.178;11.566;2022-11-14T02:42:13;6.4;;;5.8;;
26824;SDS011;14402;48.178;11.566;2022-11-14T02:42:43;6.1;;;5.6;;
26824;SDS011;14402;48.178;11.566;2022-11-14T02:43:13;5.8;;;5.3;;
26824;SDS011;14402;48.178;11.566;2022-11-14T02:43:43;5.8;;;5.3;;
26824;SDS011;14402;48.178;11.566;2022-11-14T02:44:13;5.8;;;5.3;;
26824;SDS011;14402;48.178;11.566;2022-11-14T02:44:43;5.6;;;5.1;;
26824;SDS011;14402;48.178;11.566;2022-11-14T02:45:13;5.3;;;4.9;;
26824;SDS011;14402;48.178;11.566;2022-11-14T02:45:43;5.3;;;4.9;;
26824;SDS011;14402;48.178;11.566;2022-11-14T02:46:13;5.3;;;4.9;;
26824;SDS011;14402;48.178;11.566;2022-11-14T02:46:43;5.7;;;5.2;;
26824;SDS011;14402;48.178;11.566;2022-11-14T02:47:13;6.0;;;5.5;;
26824;SDS011;14402;48.178;11.566;2022-11-14T02:47:43;6.0;;;5.5;;
26824;SDS011;14402;48.178;11.566;2022-11-14T02:48:14;6.0;;;5.5;;
26824;SDS011;14402;48.178;11.566;2022-11-14T02:48:43;5.8;;;5.3;;
26824;SDS011;14402;48.178;11.566;2022-11-14T02:49:14;5.6;;;5.2;;
26824;SDS011;14402;48.178;11.566;2022-11-14T02:49:44;5.6;;;5.2;;
26824;SDS011;14402;48.178;11.566;2022-11-14T02:50:14;5.6;;;5.2;;
26824;SDS011;14402;48.178;11.566;2022-11-14T02:50:46;5.8;;;5.3;;
26824;SDS011;14402;48.178;11.566;2022-11-14T02:51:14;5.9;;;5.4;;
26824;SDS011;14402;48.178;11.566;2022-11-14T02:51:44;5.9;;;5.4;;
26824;SDS011;14402;48.178;11.566;2022-11-14T02:52:14;5.9;;;5.4;;
26824;SDS011;14402;48.178;11.566;2022-11-14T02:52:44;5.8;;;5.3;;
26824;SDS011;14402;48.178;11.566;2022-11-14T02:53:14;5.7;;;5.2;;
26824;SDS011;14402;48.178;11.566;2022-11-14T02:53:44;5.7;;;5.2;;
26824;SDS011;14402;48.178;11.566;2022-11-14T02:54:15;5.7;;;5.2;;
26824;SDS011;14402;48.178;11.566;2022-11-14T02:54:45;5.9;;;5.4;;
26824;SDS011;14402;48.178;11.566;2022-11-14T02:55:15;6.1;;;5.6;;
26824;SDS011;14402;48.178;11.566;2022-11-14T02:55:45;6.1;;;5.6;;
26824;SDS011;14402;48.178;11.566;2022-11-14T02:56:15;6.1;;;5.6;;
26824;SDS011;14402;48.178;11.566;2022-11-14T02:56:45;5.9;;;5.4;;
26824;SDS011;14402;48.178;11.566;2022-11-14T02:57:15;5.7;;;5.2;;
26824;SDS011;14402;48.178;11.566;2022-11-14T02:57:45;5.7;;;5.2;;
26824;SDS011;14402;48.178;11.566;2022-11-14T02:58:15;5.7;;;5.2;;
26824;SDS011;14402;48.178;11.566;2022-11-14T02:58:45;5.8;;;5.2;;
26824;SDS011;14402;48.178;11.566;2022-11-14T02:59:15;5.8;;;5.2;;
26824;SDS011;14402;48.178;11.566;2022-11-14T02:59:45;5.8;;;5.2;;
26824;SDS011;14402;48.178;11.566;2022-11-14T03:00:16;5.8;;;5.2;;
26824;SDS011;14402;48.178;11.566;2022-11-14T03:00:46;5.9;;;5.3;;
26824;SDS011;14402;48.178;11.566;2022-11-14T03:01:16;6.1;;;5.5;;
26824;SDS011;14402;48.178;11.566;2022-11-14T03:01:46;6.1;;;5.5;;
26824;SDS011;14402;48.178;11.566;2022-11-14T03:02:16;6.1;;;5.5;;
26824;SDS011;14402;48.178;11.566;2022-11-14T03:02:46;6.1;;;5.5;;